createdAt,value
2023-05-18T00:01:53.725Z,1026.3
2023-05-18T00:04:55.325Z,1026.3
2023-05-18T00:07:54.045Z,1026.3
2023-05-18T00:10:53.673Z,1026.3
2023-05-18T00:13:53.320Z,1026.3
2023-05-18T00:16:53.868Z,1026.3
2023-05-18T00:19:53.612Z,1026.3
2023-05-18T00:22:53.352Z,1026.3
2023-05-18T00:25:54.362Z,1026.3
2023-05-18T00:28:53.320Z,1026.4
2023-05-18T00:31:53.529Z,1026.4
2023-05-18T00:34:53.549Z,1026.4
2023-05-18T00:37:53.396Z,1026.4
2023-05-18T00:40:53.346Z,1026.4
2023-05-18T00:43:53.371Z,1026.5
2023-05-18T00:46:53.976Z,1026.5
2023-05-18T00:49:53.559Z,1026.4
2023-05-18T00:52:53.432Z,1026.4
2023-05-18T00:55:53.468Z,1026.4
2023-05-18T00:58:53.326Z,1026.4
2023-05-18T01:01:53.891Z,1026.4
2023-05-18T01:04:53.807Z,1026.4
2023-05-18T01:07:53.381Z,1026.4
2023-05-18T01:10:53.381Z,1026.5
2023-05-18T01:13:53.389Z,1026.5
2023-05-18T01:16:53.572Z,1026.5
2023-05-18T01:19:53.677Z,1026.5
2023-05-18T01:22:53.411Z,1026.5
2023-05-18T01:25:53.527Z,1026.5
2023-05-18T01:28:53.452Z,1026.5
2023-05-18T01:31:53.620Z,1026.5
2023-05-18T01:34:54.115Z,1026.5
2023-05-18T01:37:53.394Z,1026.5
2023-05-18T01:40:53.442Z,1026.5
2023-05-18T01:43:53.410Z,1026.5
2023-05-18T01:46:53.768Z,1026.6
2023-05-18T01:49:53.364Z,1026.6
2023-05-18T01:52:53.333Z,1026.6
2023-05-18T01:55:53.349Z,1026.6
2023-05-18T01:58:54.340Z,1026.6
2023-05-18T02:01:59.207Z,1026.6
2023-05-18T02:04:54.049Z,1026.6
2023-05-18T02:07:53.530Z,1026.6
2023-05-18T02:10:53.416Z,1026.5
2023-05-18T02:13:53.472Z,1026.5
2023-05-18T02:16:53.795Z,1026.5
2023-05-18T02:19:54.300Z,1026.5
2023-05-18T02:22:53.449Z,1026.5
2023-05-18T02:25:53.687Z,1026.4
2023-05-18T02:28:53.589Z,1026.4
2023-05-18T02:31:53.497Z,1026.4
2023-05-18T02:34:53.718Z,1026.4
2023-05-18T02:37:53.379Z,1026.4
2023-05-18T02:40:53.387Z,1026.4
2023-05-18T02:43:53.358Z,1026.4
2023-05-18T02:46:54.031Z,1026.4
2023-05-18T02:49:53.421Z,1026.4
2023-05-18T02:52:53.389Z,1026.4
2023-05-18T02:55:53.365Z,1026.4
2023-05-18T02:58:53.566Z,1026.3
2023-05-18T03:01:53.948Z,1026.4
2023-05-18T03:04:53.747Z,1026.4
2023-05-18T03:07:53.378Z,1026.4
2023-05-18T03:10:53.367Z,1026.4
2023-05-18T03:13:53.415Z,1026.4
2023-05-18T03:16:53.751Z,1026.4
2023-05-18T03:19:53.666Z,1026.5
2023-05-18T03:22:53.343Z,1026.5
2023-05-18T03:25:53.359Z,1026.5
2023-05-18T03:28:53.361Z,1026.5
2023-05-18T03:31:53.653Z,1026.5
2023-05-18T03:34:53.680Z,1026.5
2023-05-18T03:37:53.393Z,1026.5
2023-05-18T03:40:53.393Z,1026.5
2023-05-18T03:43:53.387Z,1026.5
2023-05-18T03:46:53.770Z,1026.5
2023-05-18T03:49:53.451Z,1026.5
2023-05-18T03:52:53.406Z,1026.5
2023-05-18T03:55:53.516Z,1026.5
2023-05-18T03:58:53.575Z,1026.5
2023-05-18T04:01:53.541Z,1026.5
2023-05-18T04:04:54.176Z,1026.5
2023-05-18T04:07:53.419Z,1026.6
2023-05-18T04:10:53.401Z,1026.6
2023-05-18T04:13:53.328Z,1026.5
2023-05-18T04:16:53.912Z,1026.6
2023-05-18T04:19:56.446Z,1026.6
2023-05-18T04:22:53.355Z,1026.7
2023-05-18T04:25:53.474Z,1026.6
2023-05-18T04:28:55.902Z,1026.6
2023-05-18T04:31:53.627Z,1026.6
2023-05-18T04:34:53.537Z,1026.6
2023-05-18T04:37:54.261Z,1026.7
2023-05-18T04:40:53.331Z,1026.7
2023-05-18T04:43:53.745Z,1026.7
2023-05-18T04:46:53.988Z,1026.7
2023-05-18T04:49:53.555Z,1026.7
2023-05-18T04:52:53.531Z,1026.8
2023-05-18T04:55:53.341Z,1026.8
2023-05-18T04:58:53.430Z,1026.9
2023-05-18T05:01:54.100Z,1026.9
2023-05-18T05:04:54.091Z,1026.9
2023-05-18T05:07:53.487Z,1026.8
2023-05-18T05:10:53.495Z,1026.8
2023-05-18T05:13:54.341Z,1026.9
2023-05-18T05:16:53.800Z,1026.9
2023-05-18T05:19:53.671Z,1026.9
2023-05-18T05:22:53.423Z,1027.0
2023-05-18T05:25:54.704Z,1026.9
2023-05-18T05:28:53.374Z,1026.9
2023-05-18T05:31:53.560Z,1026.9
2023-05-18T05:34:53.534Z,1026.9
2023-05-18T05:37:53.536Z,1026.9
2023-05-18T05:40:53.419Z,1026.9
2023-05-18T05:43:53.995Z,1026.9
2023-05-18T05:46:54.054Z,1026.9
2023-05-18T05:49:53.404Z,1027.0
2023-05-18T05:52:53.599Z,1026.9
2023-05-18T05:55:53.394Z,1026.9
2023-05-18T05:58:53.434Z,1026.9
2023-05-18T06:01:53.567Z,1026.9
2023-05-18T06:04:56.687Z,1026.9
2023-05-18T06:07:53.458Z,1026.9
2023-05-18T06:10:53.409Z,1026.9
2023-05-18T06:13:53.388Z,1026.9
2023-05-18T06:16:53.923Z,1026.9
2023-05-18T06:19:53.811Z,1026.9
2023-05-18T06:22:53.360Z,1027.0
2023-05-18T06:25:53.426Z,1027.1
2023-05-18T06:28:53.337Z,1027.0
2023-05-18T06:31:53.546Z,1027.1
2023-05-18T06:34:53.483Z,1027.1
2023-05-18T06:37:53.556Z,1027.1
2023-05-18T06:40:53.375Z,1027.1
2023-05-18T06:43:53.486Z,1027.1
2023-05-18T06:46:57.813Z,1027.1
2023-05-18T06:49:53.416Z,1027.1
2023-05-18T06:52:53.384Z,1027.1
2023-05-18T06:55:53.379Z,1027.1
2023-05-18T06:58:53.352Z,1027.1
2023-05-18T07:01:53.591Z,1027.1
2023-05-18T07:04:53.989Z,1027.2
2023-05-18T07:07:53.387Z,1027.1
2023-05-18T07:10:53.417Z,1027.2
2023-05-18T07:13:53.461Z,1027.2
2023-05-18T07:16:54.175Z,1027.1
2023-05-18T07:19:53.704Z,1027.3
2023-05-18T07:22:53.435Z,1027.2
2023-05-18T07:25:53.343Z,1027.2
2023-05-18T07:28:54.130Z,1027.3
2023-05-18T07:31:53.620Z,1027.3
2023-05-18T07:34:53.500Z,1027.3
2023-05-18T07:37:54.108Z,1027.3
2023-05-18T07:40:55.321Z,1027.4
2023-05-18T07:43:53.457Z,1027.3
2023-05-18T07:46:53.996Z,1027.3
2023-05-18T07:49:53.401Z,1027.3
2023-05-18T07:52:53.306Z,1027.3
2023-05-18T07:55:53.403Z,1027.3
2023-05-18T07:58:53.980Z,1027.3
2023-05-18T08:01:53.478Z,1027.4
2023-05-18T08:04:54.101Z,1027.4
2023-05-18T08:07:53.403Z,1027.4
2023-05-18T08:10:53.421Z,1027.4
2023-05-18T08:13:53.373Z,1027.4
2023-05-18T08:17:03.909Z,1027.4
2023-05-18T08:19:55.907Z,1027.5
2023-05-18T08:22:53.425Z,1027.5
2023-05-18T08:25:53.457Z,1027.5
2023-05-18T08:28:53.360Z,1027.4
2023-05-18T08:31:53.681Z,1027.5
2023-05-18T08:34:53.414Z,1027.5
2023-05-18T08:38:05.481Z,1027.4
2023-05-18T08:40:53.315Z,1027.4
2023-05-18T08:44:03.339Z,1027.4
2023-05-18T08:46:53.739Z,1027.3
2023-05-18T08:49:53.945Z,1027.4
2023-05-18T08:52:53.442Z,1027.3
2023-05-18T08:55:53.854Z,1027.3
2023-05-18T08:58:53.387Z,1027.3
2023-05-18T09:01:54.383Z,1027.3
2023-05-18T09:04:53.726Z,1027.2
2023-05-18T09:07:53.524Z,1027.2
2023-05-18T09:10:53.410Z,1027.3
2023-05-18T09:13:53.371Z,1027.2
2023-05-18T09:16:53.833Z,1027.1
2023-05-18T09:19:53.664Z,1027.1
2023-05-18T09:22:54.380Z,1027.1
2023-05-18T09:25:53.417Z,1026.9
2023-05-18T09:28:53.571Z,1027.0
2023-05-18T09:31:53.656Z,1026.9
2023-05-18T09:34:53.963Z,1027.0
2023-05-18T09:37:58.505Z,1026.9
2023-05-18T09:40:53.500Z,1026.9
2023-05-18T09:43:53.453Z,1026.9
2023-05-18T09:46:53.745Z,1026.9
2023-05-18T09:49:53.453Z,1026.9
2023-05-18T09:52:53.840Z,1026.9
2023-05-18T09:55:53.464Z,1026.9
2023-05-18T09:59:03.227Z,1026.9
2023-05-18T10:01:53.727Z,1026.9
2023-05-18T10:04:53.780Z,1026.9
2023-05-18T10:07:53.331Z,1026.7
2023-05-18T10:10:56.206Z,1026.7
2023-05-18T10:13:53.353Z,1026.7
2023-05-18T10:17:00.481Z,1026.7
2023-05-18T10:19:53.766Z,1026.6
2023-05-18T10:22:53.831Z,1026.6
2023-05-18T10:25:53.476Z,1026.7
2023-05-18T10:28:53.387Z,1026.7
2023-05-18T10:31:53.985Z,1026.6
2023-05-18T10:35:03.346Z,1026.6
2023-05-18T10:37:53.375Z,1026.7
2023-05-18T10:40:53.376Z,1026.6
2023-05-18T10:43:55.630Z,1026.6
2023-05-18T10:46:53.794Z,1026.5
2023-05-18T10:49:53.509Z,1026.5
2023-05-18T10:52:55.423Z,1026.5
2023-05-18T10:55:53.378Z,1026.6
2023-05-18T10:58:53.379Z,1026.5
2023-05-18T11:01:53.928Z,1026.5
2023-05-18T11:04:54.205Z,1026.4
2023-05-18T11:07:53.356Z,1026.4
2023-05-18T11:10:53.387Z,1026.5
2023-05-18T11:13:53.485Z,1026.4
2023-05-18T11:16:54.135Z,1026.3
2023-05-18T11:19:53.762Z,1026.4
2023-05-18T11:22:53.365Z,1026.2
2023-05-18T11:25:53.383Z,1026.2
2023-05-18T11:28:53.422Z,1026.2
2023-05-18T11:32:04.784Z,1026.2
2023-05-18T11:34:55.755Z,1026.3
2023-05-18T11:37:53.335Z,1026.2
2023-05-18T11:41:03.724Z,1026.3
2023-05-18T11:43:53.478Z,1026.2
2023-05-18T11:46:53.460Z,1026.3
2023-05-18T11:49:53.973Z,1026.2
2023-05-18T11:52:53.382Z,1026.2
2023-05-18T11:55:53.568Z,1026.2
2023-05-18T11:58:53.381Z,1026.1
2023-05-18T12:01:53.639Z,1026.2
2023-05-18T12:04:54.391Z,1026.2
2023-05-18T12:07:53.368Z,1026.1
2023-05-18T12:10:54.117Z,1026.1
2023-05-18T12:13:53.397Z,1026.1
2023-05-18T12:16:54.534Z,1026.1
2023-05-18T12:19:53.806Z,1026.0
2023-05-18T12:22:53.503Z,1025.9
2023-05-18T12:25:53.372Z,1025.9
2023-05-18T12:28:53.504Z,1025.8
2023-05-18T12:31:53.499Z,1025.8
2023-05-18T12:34:53.475Z,1025.8
2023-05-18T12:38:00.622Z,1025.8
2023-05-18T12:40:54.514Z,1025.9
2023-05-18T12:43:53.377Z,1025.8
2023-05-18T12:46:54.078Z,1025.8
2023-05-18T12:49:53.494Z,1025.8
2023-05-18T12:52:53.532Z,1025.8
2023-05-18T12:55:53.364Z,1025.9
2023-05-18T12:58:55.285Z,1025.8
2023-05-18T13:01:53.680Z,1025.7
2023-05-18T13:04:54.318Z,1025.7
2023-05-18T13:07:53.580Z,1025.7
2023-05-18T13:11:01.545Z,1025.7
2023-05-18T13:14:00.590Z,1025.7
2023-05-18T13:16:53.901Z,1025.7
2023-05-18T13:19:53.668Z,1025.6
2023-05-18T13:22:53.423Z,1025.6
2023-05-18T13:25:54.356Z,1025.5
2023-05-18T13:28:53.407Z,1025.6
2023-05-18T13:31:55.289Z,1025.5
2023-05-18T13:34:53.529Z,1025.4
2023-05-18T13:37:54.535Z,1025.4
2023-05-18T13:41:02.769Z,1025.3
2023-05-18T13:43:53.386Z,1025.3
2023-05-18T13:46:54.514Z,1025.3
2023-05-18T13:49:53.465Z,1025.3
2023-05-18T13:52:53.571Z,1025.3
2023-05-18T13:55:53.400Z,1025.2
2023-05-18T13:58:53.346Z,1025.2
2023-05-18T14:01:54.173Z,1025.2
2023-05-18T14:04:53.849Z,1025.2
2023-05-18T14:07:53.385Z,1025.1
2023-05-18T14:10:53.331Z,1025.0
2023-05-18T14:13:53.465Z,1025.1
2023-05-18T14:16:53.464Z,1025.1
2023-05-18T14:19:53.695Z,1025.1
2023-05-18T14:22:53.428Z,1025.0
2023-05-18T14:25:53.441Z,1025.0
2023-05-18T14:28:53.392Z,1024.9
2023-05-18T14:31:54.050Z,1024.9
2023-05-18T14:34:53.587Z,1024.9
2023-05-18T14:37:53.428Z,1025.0
2023-05-18T14:41:03.436Z,1024.9
2023-05-18T14:43:55.410Z,1024.8
2023-05-18T14:47:03.457Z,1024.8
2023-05-18T14:49:53.622Z,1024.8
2023-05-18T14:52:53.273Z,1024.8
2023-05-18T14:55:53.448Z,1024.8
2023-05-18T14:58:53.337Z,1024.8
2023-05-18T15:01:53.819Z,1024.9
2023-05-18T15:04:54.384Z,1024.8
2023-05-18T15:07:53.291Z,1024.8
2023-05-18T15:10:53.413Z,1024.8
2023-05-18T15:13:53.391Z,1024.8
2023-05-18T15:16:53.513Z,1024.8
2023-05-18T15:19:53.881Z,1024.8
2023-05-18T15:22:53.362Z,1024.8
2023-05-18T15:25:53.380Z,1024.8
2023-05-18T15:28:53.411Z,1024.8
2023-05-18T15:31:54.187Z,1024.8
2023-05-18T15:34:53.340Z,1024.7
2023-05-18T15:37:53.384Z,1024.8
2023-05-18T15:40:53.465Z,1024.7
2023-05-18T15:43:53.366Z,1024.8
2023-05-18T15:46:53.660Z,1024.7
2023-05-18T15:49:54.743Z,1024.6
2023-05-18T15:52:53.382Z,1024.7
2023-05-18T15:55:54.069Z,1024.6
2023-05-18T15:58:53.368Z,1024.7
2023-05-18T16:01:54.110Z,1024.7
2023-05-18T16:04:54.039Z,1024.6
2023-05-18T16:07:53.405Z,1024.6
2023-05-18T16:10:53.387Z,1024.5
2023-05-18T16:13:54.194Z,1024.5
2023-05-18T16:16:53.537Z,1024.5
2023-05-18T16:19:53.700Z,1024.5
2023-05-18T16:22:53.486Z,1024.5
2023-05-18T16:25:53.377Z,1024.5
2023-05-18T16:28:53.292Z,1024.4
2023-05-18T16:31:54.168Z,1024.5
2023-05-18T16:34:53.648Z,1024.5
2023-05-18T16:37:53.519Z,1024.6
2023-05-18T16:40:53.547Z,1024.5
2023-05-18T16:43:53.424Z,1024.6
2023-05-18T16:46:53.526Z,1024.5
2023-05-18T16:49:53.510Z,1024.4
2023-05-18T16:52:53.472Z,1024.5
2023-05-18T16:55:53.488Z,1024.5
2023-05-18T16:58:53.279Z,1024.4
2023-05-18T17:02:03.619Z,1024.4
2023-05-18T17:04:54.119Z,1024.4
2023-05-18T17:07:53.472Z,1024.4
2023-05-18T17:10:53.379Z,1024.4
2023-05-18T17:13:53.556Z,1024.3
2023-05-18T17:16:54.286Z,1024.4
2023-05-18T17:19:53.784Z,1024.3
2023-05-18T17:22:53.695Z,1024.3
2023-05-18T17:25:58.173Z,1024.3
2023-05-18T17:28:53.376Z,1024.3
2023-05-18T17:31:53.889Z,1024.3
2023-05-18T17:34:53.458Z,1024.4
2023-05-18T17:37:53.340Z,1024.5
2023-05-18T17:40:53.540Z,1024.5
2023-05-18T17:43:53.470Z,1024.4
2023-05-18T17:46:53.427Z,1024.4
2023-05-18T17:49:53.453Z,1024.4
2023-05-18T17:52:53.320Z,1024.4
2023-05-18T17:55:53.335Z,1024.4
2023-05-18T17:58:53.322Z,1024.4
2023-05-18T18:01:54.105Z,1024.3
2023-05-18T18:04:53.772Z,1024.4
2023-05-18T18:07:53.434Z,1024.4
2023-05-18T18:10:53.459Z,1024.4
2023-05-18T18:13:53.439Z,1024.4
2023-05-18T18:16:53.677Z,1024.3
2023-05-18T18:19:53.612Z,1024.3
2023-05-18T18:22:53.376Z,1024.3
2023-05-18T18:25:53.394Z,1024.3
2023-05-18T18:28:53.397Z,1024.3
2023-05-18T18:31:54.049Z,1024.3
2023-05-18T18:34:53.688Z,1024.4
2023-05-18T18:37:53.408Z,1024.4
2023-05-18T18:40:53.374Z,1024.4
2023-05-18T18:43:57.898Z,1024.4
2023-05-18T18:46:53.630Z,1024.5
2023-05-18T18:49:53.449Z,1024.5
2023-05-18T18:52:53.352Z,1024.5
2023-05-18T18:55:53.424Z,1024.5
2023-05-18T18:58:53.438Z,1024.5
2023-05-18T19:01:53.551Z,1024.6
2023-05-18T19:04:53.497Z,1024.6
2023-05-18T19:07:53.350Z,1024.6
2023-05-18T19:10:53.407Z,1024.6
2023-05-18T19:13:53.446Z,1024.5
2023-05-18T19:16:54.061Z,1024.6
2023-05-18T19:19:53.575Z,1024.6
2023-05-18T19:22:53.350Z,1024.6
2023-05-18T19:25:53.626Z,1024.6
2023-05-18T19:28:53.388Z,1024.7
2023-05-18T19:31:56.055Z,1024.7
2023-05-18T19:34:53.630Z,1024.7
2023-05-18T19:37:53.401Z,1024.7
2023-05-18T19:40:53.547Z,1024.8
2023-05-18T19:43:53.484Z,1024.8
2023-05-18T19:46:53.863Z,1024.8
2023-05-18T19:49:53.517Z,1024.8
2023-05-18T19:52:53.401Z,1024.8
2023-05-18T19:55:53.362Z,1024.8
2023-05-18T19:58:53.827Z,1024.8
2023-05-18T20:01:54.030Z,1024.8
2023-05-18T20:04:53.705Z,1024.8
2023-05-18T20:07:53.382Z,1024.8
2023-05-18T20:10:53.335Z,1024.8
2023-05-18T20:13:53.367Z,1024.9
2023-05-18T20:16:53.716Z,1024.8
2023-05-18T20:19:53.820Z,1024.8
2023-05-18T20:22:53.352Z,1024.9
2023-05-18T20:25:53.580Z,1024.9
2023-05-18T20:28:53.362Z,1024.9
2023-05-18T20:31:54.014Z,1025.0
2023-05-18T20:34:53.402Z,1025.0
2023-05-18T20:37:54.200Z,1025.1
2023-05-18T20:40:53.416Z,1025.1
2023-05-18T20:43:55.882Z,1025.1
2023-05-18T20:46:53.734Z,1025.2
2023-05-18T20:49:53.760Z,1025.2
2023-05-18T20:52:53.440Z,1025.1
2023-05-18T20:55:53.388Z,1025.2
2023-05-18T20:58:53.633Z,1025.2
2023-05-18T21:01:54.057Z,1025.2
2023-05-18T21:04:54.111Z,1025.2
2023-05-18T21:07:53.313Z,1025.2
2023-05-18T21:10:53.383Z,1025.3
2023-05-18T21:13:53.511Z,1025.2
2023-05-18T21:16:53.498Z,1025.3
2023-05-18T21:19:53.626Z,1025.2
2023-05-18T21:22:53.646Z,1025.2
2023-05-18T21:25:53.557Z,1025.2
2023-05-18T21:28:53.525Z,1025.2
2023-05-18T21:31:54.202Z,1025.2
2023-05-18T21:34:53.767Z,1025.3
2023-05-18T21:37:53.382Z,1025.3
2023-05-18T21:40:53.475Z,1025.3
2023-05-18T21:43:53.618Z,1025.3
2023-05-18T21:46:56.153Z,1025.3
2023-05-18T21:49:53.589Z,1025.3
2023-05-18T21:52:53.496Z,1025.3
2023-05-18T21:55:53.821Z,1025.3
2023-05-18T21:58:53.478Z,1025.3
2023-05-18T22:01:54.259Z,1025.3
2023-05-18T22:04:53.803Z,1025.3
2023-05-18T22:07:53.419Z,1025.3
2023-05-18T22:10:53.469Z,1025.3
2023-05-18T22:13:53.461Z,1025.3
2023-05-18T22:16:53.707Z,1025.3
2023-05-18T22:19:53.750Z,1025.3
2023-05-18T22:23:02.854Z,1025.3
2023-05-18T22:25:53.577Z,1025.3
2023-05-18T22:28:53.371Z,1025.3
2023-05-18T22:31:53.904Z,1025.3
2023-05-18T22:34:53.737Z,1025.3
2023-05-18T22:37:53.415Z,1025.3
2023-05-18T22:40:53.398Z,1025.3
2023-05-18T22:43:53.392Z,1025.4
2023-05-18T22:46:53.546Z,1025.4
2023-05-18T22:49:53.599Z,1025.4
2023-05-18T22:52:53.393Z,1025.4
2023-05-18T22:55:53.374Z,1025.3
2023-05-18T22:58:53.331Z,1025.3
2023-05-18T23:01:53.726Z,1025.3
2023-05-18T23:04:53.705Z,1025.3
2023-05-18T23:07:53.337Z,1025.3
2023-05-18T23:10:53.537Z,1025.3
2023-05-18T23:13:53.429Z,1025.3
2023-05-18T23:16:53.657Z,1025.2
2023-05-18T23:19:53.825Z,1025.3
2023-05-18T23:22:53.449Z,1025.3
2023-05-18T23:25:53.405Z,1025.3
2023-05-18T23:28:53.419Z,1025.3
2023-05-18T23:31:53.726Z,1025.3
2023-05-18T23:34:53.978Z,1025.2
2023-05-18T23:37:53.397Z,1025.2
2023-05-18T23:40:53.396Z,1025.2
2023-05-18T23:43:53.448Z,1025.2
2023-05-18T23:46:53.737Z,1025.3
2023-05-18T23:49:53.409Z,1025.3
2023-05-18T23:52:53.409Z,1025.2
2023-05-18T23:55:53.380Z,1025.2
2023-05-18T23:58:53.464Z,1025.2
